createdAt,value
2019-06-01T00:00:38.186Z,23.10
2019-06-01T00:01:38.311Z,24.10
2019-06-01T00:02:38.673Z,29.10
2019-06-01T00:03:38.309Z,25.60
2019-06-01T00:04:38.633Z,28.70
2019-06-01T00:05:38.463Z,28.70
2019-06-01T00:06:38.652Z,30.90
2019-06-01T00:07:38.741Z,22.80
2019-06-01T00:08:40.200Z,24.20
2019-06-01T00:09:38.984Z,29.70
2019-06-01T00:10:38.952Z,29.30
2019-06-01T00:11:39.203Z,24.80
2019-06-01T00:12:39.245Z,23.80
2019-06-01T00:13:39.441Z,30.70
2019-06-01T00:14:38.036Z,32.70
2019-06-01T00:15:38.024Z,29.70
2019-06-01T00:16:38.016Z,26.10
2019-06-01T00:17:38.002Z,35.50
2019-06-01T00:18:37.992Z,31.80
2019-06-01T00:19:37.997Z,27.40
2019-06-01T00:20:37.970Z,32.60
2019-06-01T00:21:37.961Z,31.40
2019-06-01T00:22:37.948Z,32.00
2019-06-01T00:23:37.938Z,39.70
2019-06-01T00:24:37.927Z,59.50
2019-06-01T00:25:37.918Z,35.60
2019-06-01T00:26:37.904Z,30.30
2019-06-01T00:27:37.895Z,27.10
2019-06-01T00:28:37.883Z,60.50
2019-06-01T00:29:37.873Z,30.20
2019-06-01T00:30:37.864Z,23.90
2019-06-01T00:31:37.853Z,32.40
2019-06-01T00:32:37.840Z,23.60
2019-06-01T00:33:37.830Z,22.80
2019-06-01T00:34:37.820Z,25.90
2019-06-01T00:35:37.808Z,24.50
2019-06-01T00:36:37.797Z,27.10
2019-06-01T00:37:37.790Z,24.00
2019-06-01T00:38:37.775Z,22.50
2019-06-01T00:39:37.764Z,20.40
2019-06-01T00:40:37.755Z,25.10
2019-06-01T00:41:37.744Z,24.70
2019-06-01T00:42:37.732Z,21.10
2019-06-01T00:43:37.724Z,20.60
2019-06-01T00:44:37.711Z,22.10
2019-06-01T00:45:37.700Z,25.40
2019-06-01T00:46:37.692Z,27.20
2019-06-01T00:47:37.678Z,34.80
2019-06-01T00:48:37.668Z,33.60
2019-06-01T00:49:37.659Z,39.90
2019-06-01T00:50:37.648Z,20.40
2019-06-01T00:51:37.635Z,24.10
2019-06-01T00:52:37.645Z,21.30
2019-06-01T00:53:37.614Z,34.40
2019-06-01T00:54:37.603Z,38.90
2019-06-01T00:55:37.593Z,29.60
2019-06-01T00:56:37.580Z,28.70
2019-06-01T00:57:37.570Z,37.40
2019-06-01T00:58:37.558Z,21.40
2019-06-01T00:59:37.549Z,33.60
2019-06-01T01:00:43.587Z,35.90
2019-06-01T01:01:38.529Z,22.80
2019-06-01T01:02:37.516Z,27.50
2019-06-01T01:03:37.507Z,18.50
2019-06-01T01:04:37.494Z,23.60
2019-06-01T01:05:37.484Z,22.70
2019-06-01T01:06:37.474Z,20.80
2019-06-01T01:07:38.291Z,26.90
2019-06-01T01:08:37.451Z,24.20
2019-06-01T01:09:37.442Z,25.40
2019-06-01T01:10:37.429Z,25.80
2019-06-01T01:11:37.422Z,25.20
2019-06-01T01:12:37.408Z,23.80
2019-06-01T01:13:37.422Z,33.30
2019-06-01T01:14:37.388Z,22.40
2019-06-01T01:15:37.392Z,30.80
2019-06-01T01:16:37.368Z,30.50
2019-06-01T01:17:37.355Z,25.50
2019-06-01T01:18:37.344Z,42.90
2019-06-01T01:19:37.333Z,27.00
2019-06-01T01:20:37.322Z,26.20
2019-06-01T01:21:37.314Z,31.40
2019-06-01T01:22:37.300Z,30.90
2019-06-01T01:23:37.291Z,45.70
2019-06-01T01:24:37.280Z,58.20
2019-06-01T01:25:37.269Z,23.90
2019-06-01T01:26:37.261Z,56.40
2019-06-01T01:27:37.248Z,29.70
2019-06-01T01:28:37.237Z,21.10
2019-06-01T01:29:37.227Z,22.60
2019-06-01T01:30:37.383Z,23.60
2019-06-01T01:31:37.205Z,21.50
2019-06-01T01:32:37.194Z,28.00
2019-06-01T01:33:37.184Z,24.60
2019-06-01T01:34:37.171Z,22.50
2019-06-01T01:35:37.161Z,23.90
2019-06-01T01:36:37.158Z,23.70
2019-06-01T01:37:37.139Z,36.60
2019-06-01T01:38:37.130Z,21.10
2019-06-01T01:39:37.118Z,31.70
2019-06-01T01:40:37.113Z,21.70
2019-06-01T01:41:37.097Z,23.90
2019-06-01T01:42:37.086Z,27.20
2019-06-01T01:43:37.076Z,22.50
2019-06-01T01:44:37.065Z,25.60
2019-06-01T01:45:37.054Z,44.80
2019-06-01T01:46:37.043Z,21.90
2019-06-01T01:47:37.033Z,91.40
2019-06-01T01:48:37.028Z,25.20
2019-06-01T01:49:37.009Z,33.30
2019-06-01T01:50:37.001Z,27.90
2019-06-01T01:51:36.989Z,24.70
2019-06-01T01:52:39.527Z,28.00
2019-06-01T01:53:36.966Z,23.20
2019-06-01T01:54:36.953Z,23.60
2019-06-01T01:55:36.946Z,26.70
2019-06-01T01:56:36.933Z,24.00
2019-06-01T01:57:36.926Z,23.10
2019-06-01T01:58:36.914Z,32.40
2019-06-01T01:59:36.904Z,23.00
2019-06-01T02:00:36.904Z,42.10
2019-06-01T02:01:36.881Z,21.60
2019-06-01T02:02:36.876Z,22.80
2019-06-01T02:03:36.859Z,23.80
2019-06-01T02:04:36.855Z,24.70
2019-06-01T02:05:36.845Z,26.30
2019-06-01T02:06:36.829Z,26.60
2019-06-01T02:07:36.816Z,28.60
2019-06-01T02:08:36.811Z,35.90
2019-06-01T02:09:36.841Z,29.40
2019-06-01T02:10:36.785Z,25.30
2019-06-01T02:11:36.779Z,31.10
2019-06-01T02:12:36.762Z,25.70
2019-06-01T02:13:36.763Z,34.60
2019-06-01T02:14:36.742Z,22.70
2019-06-01T02:15:36.732Z,52.40
2019-06-01T02:16:36.733Z,25.90
2019-06-01T02:17:36.707Z,26.60
2019-06-01T02:18:36.699Z,28.50
2019-06-01T02:19:36.724Z,26.80
2019-06-01T02:20:36.675Z,30.00
2019-06-01T02:21:36.675Z,27.20
2019-06-01T02:22:36.659Z,25.80
2019-06-01T02:23:36.644Z,34.90
2019-06-01T02:24:36.635Z,47.80
2019-06-01T02:25:36.623Z,26.90
2019-06-01T02:26:36.610Z,40.10
2019-06-01T02:27:36.607Z,45.30
2019-06-01T02:28:36.591Z,40.60
2019-06-01T02:29:36.578Z,29.50
2019-06-01T02:30:36.568Z,26.90
2019-06-01T02:31:42.151Z,27.90
2019-06-01T02:32:37.558Z,28.40
2019-06-01T02:33:36.537Z,29.50
2019-06-01T02:34:36.529Z,31.50
2019-06-01T02:35:36.523Z,29.30
2019-06-01T02:36:36.504Z,31.10
2019-06-01T02:37:36.502Z,35.80
2019-06-01T02:38:36.502Z,40.60
2019-06-01T02:39:36.474Z,31.10
2019-06-01T02:40:36.468Z,33.10
2019-06-01T02:41:36.451Z,32.40
2019-06-01T02:42:36.442Z,30.40
2019-06-01T02:43:36.430Z,29.30
2019-06-01T02:44:36.418Z,25.90
2019-06-01T02:45:36.415Z,120.50
2019-06-01T02:46:36.466Z,28.10
2019-06-01T02:47:36.393Z,35.50
2019-06-01T02:48:36.376Z,29.70
2019-06-01T02:49:36.368Z,36.70
2019-06-01T02:50:36.455Z,32.10
2019-06-01T02:51:36.378Z,28.80
2019-06-01T02:52:36.331Z,27.90
2019-06-01T02:53:36.332Z,36.20
2019-06-01T02:54:36.313Z,32.40
2019-06-01T02:55:36.301Z,29.80
2019-06-01T02:56:36.290Z,32.50
2019-06-01T02:57:36.277Z,31.80
2019-06-01T02:58:36.268Z,32.50
2019-06-01T02:59:36.261Z,32.00
2019-06-01T03:00:36.245Z,33.20
2019-06-01T03:01:36.260Z,33.40
2019-06-01T03:02:36.228Z,26.30
2019-06-01T03:03:36.212Z,29.00
2019-06-01T03:04:36.203Z,27.70
2019-06-01T03:05:36.191Z,32.70
2019-06-01T03:06:36.180Z,35.20
2019-06-01T03:07:36.170Z,31.40
2019-06-01T03:08:36.161Z,25.90
2019-06-01T03:09:36.147Z,33.00
2019-06-01T03:10:36.138Z,33.30
2019-06-01T03:11:36.126Z,33.20
2019-06-01T03:12:36.115Z,32.20
2019-06-01T03:13:36.106Z,39.30
2019-06-01T03:14:36.100Z,41.40
2019-06-01T03:15:36.084Z,36.20
2019-06-01T03:16:39.388Z,99.90
2019-06-01T03:17:36.059Z,37.50
2019-06-01T03:18:36.051Z,34.90
2019-06-01T03:19:36.040Z,33.30
2019-06-01T03:20:36.029Z,31.50
2019-06-01T03:21:36.017Z,33.80
2019-06-01T03:22:36.012Z,35.30
2019-06-01T03:23:35.996Z,40.40
2019-06-01T03:24:35.985Z,40.00
2019-06-01T03:25:35.974Z,40.50
2019-06-01T03:26:35.964Z,35.80
2019-06-01T03:27:35.952Z,43.80
2019-06-01T03:28:35.945Z,36.50
2019-06-01T03:29:35.930Z,35.80
2019-06-01T03:30:35.922Z,39.00
2019-06-01T03:31:35.910Z,36.10
2019-06-01T03:32:37.552Z,43.80
2019-06-01T03:33:35.886Z,41.20
2019-06-01T03:34:35.877Z,71.00
2019-06-01T03:35:35.868Z,37.00
2019-06-01T03:36:35.855Z,33.80
2019-06-01T03:37:35.845Z,35.00
2019-06-01T03:38:35.834Z,32.90
2019-06-01T03:39:35.823Z,43.40
2019-06-01T03:40:35.811Z,37.00
2019-06-01T03:41:35.801Z,37.50
2019-06-01T03:42:35.793Z,40.00
2019-06-01T03:43:35.780Z,37.80
2019-06-01T03:44:35.769Z,50.00
2019-06-01T03:45:35.758Z,42.90
2019-06-01T03:46:35.749Z,34.80
2019-06-01T03:47:35.737Z,48.00
2019-06-01T03:48:35.727Z,33.20
2019-06-01T03:49:35.722Z,34.50
2019-06-01T03:50:35.715Z,33.40
2019-06-01T03:51:35.695Z,32.00
2019-06-01T03:52:35.685Z,32.10
2019-06-01T03:53:35.673Z,40.60
2019-06-01T03:54:35.660Z,33.30
2019-06-01T03:55:35.658Z,34.00
2019-06-01T03:56:35.640Z,40.20
2019-06-01T03:57:35.631Z,29.00
2019-06-01T03:58:35.617Z,28.50
2019-06-01T03:59:35.610Z,29.30
2019-06-01T04:00:35.596Z,29.60
2019-06-01T04:01:35.585Z,30.00
2019-06-01T04:02:35.590Z,30.10
2019-06-01T04:03:35.564Z,34.90
2019-06-01T04:04:35.553Z,64.90
2019-06-01T04:05:35.543Z,33.90
2019-06-01T04:06:35.532Z,30.10
2019-06-01T04:07:38.691Z,32.10
2019-06-01T04:08:35.512Z,31.60
2019-06-01T04:09:35.500Z,28.60
2019-06-01T04:10:35.489Z,31.80
2019-06-01T04:11:35.479Z,28.80
2019-06-01T04:12:35.465Z,26.20
2019-06-01T04:13:35.456Z,27.60
2019-06-01T04:14:35.445Z,26.70
2019-06-01T04:15:35.434Z,27.60
2019-06-01T04:16:35.423Z,26.10
2019-06-01T04:17:35.415Z,29.20
2019-06-01T04:18:35.402Z,26.40
2019-06-01T04:19:35.392Z,27.20
2019-06-01T04:20:35.380Z,27.20
2019-06-01T04:21:35.385Z,26.10
2019-06-01T04:22:35.359Z,25.90
2019-06-01T04:23:36.475Z,26.50
2019-06-01T04:24:35.336Z,23.50
2019-06-01T04:25:35.329Z,27.10
2019-06-01T04:26:35.316Z,24.80
2019-06-01T04:27:35.304Z,25.10
2019-06-01T04:28:35.296Z,25.40
2019-06-01T04:29:35.282Z,28.90
2019-06-01T04:30:35.277Z,24.90
2019-06-01T04:31:35.262Z,25.00
2019-06-01T04:32:48.768Z,26.20
2019-06-01T04:33:36.240Z,24.80
2019-06-01T04:34:35.866Z,24.80
2019-06-01T04:35:35.218Z,23.20
2019-06-01T04:36:35.216Z,27.10
2019-06-01T04:37:35.199Z,26.10
2019-06-01T04:38:35.191Z,24.50
2019-06-01T04:39:35.176Z,23.80
2019-06-01T04:40:35.164Z,22.70
2019-06-01T04:41:35.155Z,25.30
2019-06-01T04:42:35.143Z,25.10
2019-06-01T04:43:35.134Z,23.40
2019-06-01T04:44:35.122Z,23.60
2019-06-01T04:45:35.112Z,23.00
2019-06-01T04:46:35.099Z,22.20
2019-06-01T04:47:35.091Z,25.20
2019-06-01T04:48:35.078Z,24.60
2019-06-01T04:49:35.066Z,22.80
2019-06-01T04:50:35.067Z,22.00
2019-06-01T04:51:35.047Z,22.40
2019-06-01T04:52:35.036Z,21.60
2019-06-01T04:53:35.026Z,21.90
2019-06-01T04:54:35.015Z,22.60
2019-06-01T04:55:35.003Z,21.70
2019-06-01T04:56:34.994Z,23.40
2019-06-01T04:57:34.984Z,22.50
2019-06-01T04:58:34.974Z,20.90
2019-06-01T04:59:37.711Z,21.50
2019-06-01T05:00:34.949Z,20.40
2019-06-01T05:01:34.944Z,23.10
2019-06-01T05:02:34.927Z,21.30
2019-06-01T05:03:34.917Z,21.60
2019-06-01T05:04:34.909Z,21.10
2019-06-01T05:05:34.897Z,21.40
2019-06-01T05:06:34.885Z,19.20
2019-06-01T05:07:34.873Z,22.30
2019-06-01T05:08:34.864Z,21.90
2019-06-01T05:09:34.854Z,20.90
2019-06-01T05:10:34.848Z,21.00
2019-06-01T05:11:34.830Z,19.40
2019-06-01T05:12:34.820Z,22.20
2019-06-01T05:13:34.808Z,21.30
2019-06-01T05:14:34.799Z,21.80
2019-06-01T05:15:34.787Z,22.50
2019-06-01T05:16:34.776Z,21.50
2019-06-01T05:17:34.764Z,19.50
2019-06-01T05:18:34.756Z,20.40
2019-06-01T05:19:34.745Z,20.70
2019-06-01T05:20:34.733Z,20.10
2019-06-01T05:21:34.721Z,22.60
2019-06-01T05:22:34.711Z,20.20
2019-06-01T05:23:34.699Z,20.50
2019-06-01T05:24:34.690Z,20.20
2019-06-01T05:25:34.686Z,22.80
2019-06-01T05:26:34.669Z,19.30
2019-06-01T05:27:34.659Z,20.70
2019-06-01T05:28:34.645Z,21.80
2019-06-01T05:29:34.637Z,21.40
2019-06-01T05:30:34.633Z,19.40
2019-06-01T05:31:34.614Z,20.10
2019-06-01T05:32:34.603Z,22.10
2019-06-01T05:33:37.563Z,21.10
2019-06-01T05:34:34.579Z,20.50
2019-06-01T05:35:34.570Z,19.90
2019-06-01T05:36:34.560Z,20.10
2019-06-01T05:37:34.551Z,19.80
2019-06-01T05:38:34.543Z,19.00
2019-06-01T05:39:34.527Z,19.60
2019-06-01T05:40:34.517Z,21.50
2019-06-01T05:41:34.506Z,23.20
2019-06-01T05:42:34.494Z,22.50
2019-06-01T05:43:34.486Z,18.50
2019-06-01T05:44:34.474Z,21.60
2019-06-01T05:45:34.471Z,18.90
2019-06-01T05:46:34.463Z,20.70
2019-06-01T05:47:34.442Z,19.90
2019-06-01T05:48:34.434Z,21.50
2019-06-01T05:49:34.422Z,22.70
2019-06-01T05:50:34.410Z,22.80
2019-06-01T05:51:34.400Z,21.80
2019-06-01T05:52:34.390Z,20.60
2019-06-01T05:53:34.377Z,22.90
2019-06-01T05:54:34.367Z,21.80
2019-06-01T05:55:34.356Z,21.80
2019-06-01T05:56:34.347Z,19.80
2019-06-01T05:57:34.334Z,21.80
2019-06-01T05:58:34.325Z,20.80
2019-06-01T05:59:34.314Z,20.20
2019-06-01T06:00:34.305Z,22.40
2019-06-01T06:01:34.293Z,21.60
2019-06-01T06:02:34.280Z,24.40
2019-06-01T06:03:40.393Z,20.90
2019-06-01T06:04:35.259Z,20.30
2019-06-01T06:05:34.249Z,22.00
2019-06-01T06:06:34.236Z,18.60
2019-06-01T06:07:34.227Z,20.40
2019-06-01T06:08:34.217Z,20.00
2019-06-01T06:09:34.319Z,23.50
2019-06-01T06:10:34.195Z,20.50
2019-06-01T06:11:34.187Z,22.40
2019-06-01T06:12:34.180Z,19.80
2019-06-01T06:13:34.165Z,21.70
2019-06-01T06:14:34.152Z,19.80
2019-06-01T06:15:34.143Z,19.90
2019-06-01T06:16:34.133Z,19.80
2019-06-01T06:17:34.119Z,22.30
2019-06-01T06:18:34.119Z,19.90
2019-06-01T06:19:34.099Z,19.10
2019-06-01T06:20:34.091Z,17.60
2019-06-01T06:21:34.090Z,21.00
2019-06-01T06:22:34.067Z,19.50
2019-06-01T06:23:34.056Z,19.30
2019-06-01T06:24:34.047Z,18.60
2019-06-01T06:25:36.365Z,20.60
2019-06-01T06:26:34.027Z,20.50
2019-06-01T06:27:34.013Z,19.20
2019-06-01T06:28:34.002Z,20.00
2019-06-01T06:29:33.992Z,17.60
2019-06-01T06:30:33.981Z,21.50
2019-06-01T06:31:33.970Z,17.90
2019-06-01T06:32:33.961Z,18.60
2019-06-01T06:33:36.868Z,18.00
2019-06-01T06:34:33.943Z,19.20
2019-06-01T06:35:33.936Z,18.40
2019-06-01T06:36:33.916Z,19.40
2019-06-01T06:37:33.905Z,20.60
2019-06-01T06:38:33.895Z,22.40
2019-06-01T06:39:33.888Z,18.50
2019-06-01T06:40:33.875Z,19.90
2019-06-01T06:41:33.863Z,18.40
2019-06-01T06:42:33.852Z,21.70
2019-06-01T06:43:33.846Z,20.60
2019-06-01T06:44:33.830Z,18.70
2019-06-01T06:45:33.820Z,18.50
2019-06-01T06:46:33.810Z,16.90
2019-06-01T06:47:33.802Z,19.20
2019-06-01T06:48:33.805Z,19.10
2019-06-01T06:49:33.779Z,18.00
2019-06-01T06:50:33.773Z,19.70
2019-06-01T06:51:33.757Z,17.50
2019-06-01T06:52:33.762Z,21.40
2019-06-01T06:53:35.473Z,18.40
2019-06-01T06:54:33.722Z,18.00
2019-06-01T06:55:33.714Z,21.00
2019-06-01T06:56:33.704Z,19.70
2019-06-01T06:57:33.690Z,19.60
2019-06-01T06:58:33.682Z,18.70
2019-06-01T06:59:33.683Z,17.40
2019-06-01T07:00:33.668Z,17.20
2019-06-01T07:01:33.664Z,17.60
2019-06-01T07:02:33.655Z,15.90
2019-06-01T07:03:33.628Z,17.40
2019-06-01T07:04:33.628Z,15.80
2019-06-01T07:05:33.615Z,17.00
2019-06-01T07:06:33.599Z,18.20
2019-06-01T07:07:33.585Z,15.80
2019-06-01T07:08:33.578Z,16.60
2019-06-01T07:09:33.566Z,16.00
2019-06-01T07:10:33.553Z,14.10
2019-06-01T07:11:33.542Z,17.50
2019-06-01T07:12:33.532Z,16.00
2019-06-01T07:13:33.534Z,13.30
2019-06-01T07:14:33.509Z,13.00
2019-06-01T07:15:33.501Z,14.50
2019-06-01T07:16:33.496Z,14.20
2019-06-01T07:17:33.478Z,13.20
2019-06-01T07:18:33.484Z,15.10
2019-06-01T07:19:33.456Z,12.80
2019-06-01T07:20:33.447Z,12.90
2019-06-01T07:21:33.446Z,12.60
2019-06-01T07:22:33.480Z,13.20
2019-06-01T07:23:33.418Z,11.80
2019-06-01T07:24:33.418Z,11.60
2019-06-01T07:25:33.409Z,14.00
2019-06-01T07:26:33.409Z,13.60
2019-06-01T07:27:33.374Z,14.30
2019-06-01T07:28:33.380Z,12.10
2019-06-01T07:29:33.353Z,12.20
2019-06-01T07:30:49.453Z,11.80
2019-06-01T07:31:34.329Z,11.60
2019-06-01T07:32:33.320Z,13.50
2019-06-01T07:33:33.311Z,12.10
2019-06-01T07:34:41.516Z,11.20
2019-06-01T07:35:34.288Z,12.10
2019-06-01T07:36:33.281Z,10.30
2019-06-01T07:37:33.270Z,11.40
2019-06-01T07:38:33.320Z,10.90
2019-06-01T07:39:33.549Z,11.80
2019-06-01T07:40:33.237Z,9.10
2019-06-01T07:41:33.225Z,12.10
2019-06-01T07:42:33.230Z,9.60
2019-06-01T07:43:33.398Z,11.50
2019-06-01T07:44:33.325Z,12.60
2019-06-01T07:45:35.196Z,10.40
2019-06-01T07:46:33.294Z,9.50
2019-06-01T07:47:34.094Z,10.20
2019-06-01T07:48:33.504Z,9.30
2019-06-01T07:49:33.162Z,9.20
2019-06-01T07:50:33.131Z,10.90
2019-06-01T07:51:33.119Z,10.70
2019-06-01T07:52:33.117Z,9.70
2019-06-01T07:53:33.099Z,9.60
2019-06-01T07:54:33.089Z,8.70
2019-06-01T07:55:33.081Z,11.70
2019-06-01T07:56:33.071Z,10.00
2019-06-01T07:57:33.057Z,10.20
2019-06-01T07:58:33.049Z,9.30
2019-06-01T07:59:33.035Z,10.00
2019-06-01T08:00:33.294Z,9.80
2019-06-01T08:01:33.066Z,11.30
2019-06-01T08:02:33.139Z,10.80
2019-06-01T08:03:34.945Z,9.40
2019-06-01T08:04:50.669Z,8.90
2019-06-01T08:05:33.973Z,8.70
2019-06-01T08:06:32.963Z,10.70
2019-06-01T08:07:32.956Z,8.00
2019-06-01T08:08:32.943Z,7.60
2019-06-01T08:09:32.934Z,7.70
2019-06-01T08:10:32.922Z,9.40
2019-06-01T08:11:35.121Z,7.50
2019-06-01T08:12:32.903Z,8.00
2019-06-01T08:13:35.415Z,8.20
2019-06-01T08:14:32.969Z,9.50
2019-06-01T08:15:32.869Z,6.70
2019-06-01T08:16:32.862Z,7.70
2019-06-01T08:17:32.847Z,10.00
2019-06-01T08:18:32.841Z,7.60
2019-06-01T08:19:32.828Z,8.90
2019-06-01T08:20:32.816Z,8.20
2019-06-01T08:21:32.807Z,6.30
2019-06-01T08:22:32.793Z,6.10
2019-06-01T08:23:32.787Z,7.80
2019-06-01T08:24:32.775Z,9.70
2019-06-01T08:25:32.901Z,6.70
2019-06-01T08:26:32.805Z,5.90
2019-06-01T08:27:32.748Z,5.90
2019-06-01T08:28:32.838Z,5.90
2019-06-01T08:29:32.912Z,7.40
2019-06-01T08:30:32.795Z,6.60
2019-06-01T08:31:33.649Z,6.40
2019-06-01T08:32:32.945Z,6.60
2019-06-01T08:33:34.817Z,7.70
2019-06-01T08:34:33.133Z,7.20
2019-06-01T08:35:33.215Z,7.30
2019-06-01T08:36:33.889Z,7.00
2019-06-01T08:37:33.593Z,6.80
2019-06-01T08:38:33.787Z,5.90
2019-06-01T08:39:34.226Z,7.00
2019-06-01T08:40:33.534Z,7.20
2019-06-01T08:41:33.690Z,10.00
2019-06-01T08:42:33.713Z,7.70
2019-06-01T08:43:33.834Z,6.80
2019-06-01T08:44:33.671Z,7.70
2019-06-01T08:45:35.887Z,6.70
2019-06-01T08:46:33.700Z,5.30
2019-06-01T08:47:33.940Z,6.30
2019-06-01T08:48:32.533Z,5.70
2019-06-01T08:49:32.740Z,5.00
2019-06-01T08:50:32.512Z,6.40
2019-06-01T08:51:32.508Z,5.60
2019-06-01T08:52:32.497Z,5.00
2019-06-01T08:53:32.483Z,7.10
2019-06-01T08:54:32.476Z,6.90
2019-06-01T08:55:32.467Z,7.50
2019-06-01T08:56:32.462Z,5.20
2019-06-01T08:57:32.539Z,6.70
2019-06-01T08:58:32.571Z,5.10
2019-06-01T08:59:32.615Z,5.00
2019-06-01T09:00:32.664Z,5.40
2019-06-01T09:01:32.827Z,5.60
2019-06-01T09:02:32.824Z,4.40
2019-06-01T09:03:33.794Z,4.90
2019-06-01T09:04:32.823Z,4.70
2019-06-01T09:05:33.128Z,5.10
2019-06-01T09:06:33.180Z,4.60
2019-06-01T09:07:33.178Z,4.40
2019-06-01T09:08:33.241Z,4.90
2019-06-01T09:09:33.140Z,6.10
2019-06-01T09:10:33.267Z,5.70
2019-06-01T09:11:33.283Z,5.30
2019-06-01T09:12:33.287Z,4.40
2019-06-01T09:13:33.290Z,5.00
2019-06-01T09:14:33.474Z,6.60
2019-06-01T09:15:33.656Z,4.70
2019-06-01T09:16:33.489Z,6.20
2019-06-01T09:17:33.429Z,5.20
2019-06-01T09:18:33.574Z,5.30
2019-06-01T09:19:33.489Z,5.90
2019-06-01T09:20:35.840Z,5.50
2019-06-01T09:21:33.570Z,5.10
2019-06-01T09:22:32.214Z,4.70
2019-06-01T09:23:32.212Z,5.40
2019-06-01T09:24:32.199Z,4.60
2019-06-01T09:25:32.185Z,4.70
2019-06-01T09:26:32.175Z,5.20
2019-06-01T09:27:32.169Z,5.50
2019-06-01T09:28:32.168Z,6.80
2019-06-01T09:29:32.216Z,4.30
2019-06-01T09:30:32.197Z,5.60
2019-06-01T09:31:32.483Z,6.00
2019-06-01T09:32:32.325Z,6.80
2019-06-01T09:33:32.252Z,6.00
2019-06-01T09:34:32.462Z,5.20
2019-06-01T09:35:50.124Z,5.70
2019-06-01T09:36:33.083Z,5.40
2019-06-01T09:37:32.543Z,5.20
2019-06-01T09:38:32.066Z,5.80
2019-06-01T09:39:33.162Z,5.20
2019-06-01T09:40:33.415Z,6.00
2019-06-01T09:41:32.595Z,4.60
2019-06-01T09:42:33.388Z,5.20
2019-06-01T09:43:32.811Z,6.90
2019-06-01T09:44:33.452Z,6.60
2019-06-01T09:45:33.034Z,5.20
2019-06-01T09:46:33.836Z,5.70
2019-06-01T09:47:33.239Z,4.80
2019-06-01T09:48:31.970Z,6.20
2019-06-01T09:49:33.736Z,5.20
2019-06-01T09:50:31.952Z,5.70
2019-06-01T09:51:31.940Z,6.10
2019-06-01T09:52:31.944Z,6.10
2019-06-01T09:53:32.550Z,4.70
2019-06-01T09:54:33.075Z,6.00
2019-06-01T09:55:32.677Z,5.10
2019-06-01T09:56:34.011Z,7.20
2019-06-01T09:57:32.028Z,6.00
2019-06-01T09:58:32.300Z,6.90
2019-06-01T09:59:32.032Z,6.80
2019-06-01T10:00:32.389Z,5.70
2019-06-01T10:01:32.390Z,6.70
2019-06-01T10:02:32.108Z,5.60
2019-06-01T10:03:32.438Z,5.40
2019-06-01T10:04:32.281Z,6.20
2019-06-01T10:05:32.386Z,5.70
2019-06-01T10:06:32.510Z,6.80
2019-06-01T10:07:32.814Z,7.70
2019-06-01T10:08:32.559Z,5.40
2019-06-01T10:09:31.763Z,7.00
2019-06-01T10:10:31.901Z,8.40
2019-06-01T10:11:32.620Z,5.70
2019-06-01T10:12:31.931Z,5.00
2019-06-01T10:13:32.937Z,5.50
2019-06-01T10:14:32.145Z,7.10
2019-06-01T10:15:32.473Z,5.10
2019-06-01T10:16:32.730Z,5.60
2019-06-01T10:17:33.193Z,6.60
2019-06-01T10:18:32.752Z,5.10
2019-06-01T10:19:32.602Z,7.10
2019-06-01T10:20:33.190Z,7.30
2019-06-01T10:21:32.065Z,6.10
2019-06-01T10:22:32.735Z,6.80
2019-06-01T10:23:32.362Z,5.60
2019-06-01T10:24:31.623Z,5.70
2019-06-01T10:25:32.412Z,5.40
2019-06-01T10:26:31.600Z,4.90
2019-06-01T10:27:32.453Z,5.20
2019-06-01T10:28:31.648Z,5.10
2019-06-01T10:29:32.560Z,4.70
2019-06-01T10:30:31.725Z,7.00
2019-06-01T10:31:32.617Z,5.20
2019-06-01T10:32:32.558Z,6.90
2019-06-01T10:33:32.662Z,4.70
2019-06-01T10:34:31.566Z,5.80
2019-06-01T10:35:32.711Z,5.00
2019-06-01T10:36:31.929Z,5.80
2019-06-01T10:37:31.497Z,4.30
2019-06-01T10:38:31.474Z,4.80
2019-06-01T10:39:31.471Z,5.10
2019-06-01T10:40:31.453Z,5.10
2019-06-01T10:41:31.445Z,4.40
2019-06-01T10:42:32.746Z,4.90
2019-06-01T10:43:31.505Z,5.90
2019-06-01T10:44:31.623Z,4.60
2019-06-01T10:45:31.812Z,4.90
2019-06-01T10:46:31.796Z,4.60
2019-06-01T10:47:31.743Z,5.50
2019-06-01T10:48:32.767Z,4.30
2019-06-01T10:49:31.825Z,7.00
2019-06-01T10:50:33.034Z,5.10
2019-06-01T10:51:32.044Z,4.60
2019-06-01T10:52:31.997Z,5.30
2019-06-01T10:53:32.069Z,4.90
2019-06-01T10:54:32.521Z,4.60
2019-06-01T10:55:32.011Z,4.80
2019-06-01T10:56:32.323Z,4.70
2019-06-01T10:57:32.314Z,6.10
2019-06-01T10:58:32.245Z,5.20
2019-06-01T10:59:32.205Z,4.20
2019-06-01T11:00:39.735Z,4.70
2019-06-01T11:01:34.108Z,4.70
2019-06-01T11:02:32.523Z,4.60
2019-06-01T11:03:32.438Z,5.10
2019-06-01T11:04:32.701Z,5.00
2019-06-01T11:05:32.511Z,5.30
2019-06-01T11:06:40.284Z,4.50
2019-06-01T11:07:32.735Z,4.60
2019-06-01T11:08:31.178Z,5.60
2019-06-01T11:09:31.190Z,4.50
2019-06-01T11:10:31.156Z,5.20
2019-06-01T11:11:31.148Z,5.30
2019-06-01T11:12:31.139Z,4.60
2019-06-01T11:13:31.127Z,4.90
2019-06-01T11:14:31.118Z,4.10
2019-06-01T11:15:31.108Z,4.50
2019-06-01T11:16:31.099Z,4.50
2019-06-01T11:17:31.089Z,6.00
2019-06-01T11:18:31.077Z,3.80
2019-06-01T11:19:31.064Z,5.90
2019-06-01T11:20:31.057Z,5.60
2019-06-01T11:21:31.046Z,4.60
2019-06-01T11:22:31.049Z,4.70
2019-06-01T11:23:31.031Z,4.70
2019-06-01T11:24:31.016Z,5.10
2019-06-01T11:25:31.011Z,4.30
2019-06-01T11:26:30.997Z,3.90
2019-06-01T11:27:30.988Z,4.40
2019-06-01T11:28:30.982Z,3.80
2019-06-01T11:29:30.967Z,4.90
2019-06-01T11:30:30.959Z,3.80
2019-06-01T11:31:30.950Z,4.00
2019-06-01T11:32:30.941Z,3.80
2019-06-01T11:33:30.937Z,4.10
2019-06-01T11:34:30.923Z,4.30
2019-06-01T11:35:31.011Z,4.60
2019-06-01T11:36:30.905Z,3.90
2019-06-01T11:37:30.903Z,3.60
2019-06-01T11:38:30.888Z,5.10
2019-06-01T11:39:30.878Z,4.00
2019-06-01T11:40:30.871Z,3.50
2019-06-01T11:41:30.860Z,3.70
2019-06-01T11:42:30.854Z,3.80
2019-06-01T11:43:30.844Z,4.30
2019-06-01T11:44:30.855Z,4.10
2019-06-01T11:45:30.824Z,3.80
2019-06-01T11:46:30.816Z,4.00
2019-06-01T11:47:30.807Z,3.70
2019-06-01T11:48:30.797Z,3.80
2019-06-01T11:49:30.787Z,4.40
2019-06-01T11:50:30.777Z,3.50
2019-06-01T11:51:30.779Z,3.80
2019-06-01T11:52:30.757Z,4.30
2019-06-01T11:53:30.747Z,3.90
2019-06-01T11:54:30.736Z,3.90
2019-06-01T11:55:30.742Z,4.00
2019-06-01T11:56:30.718Z,5.90
2019-06-01T11:57:30.707Z,5.90
2019-06-01T11:58:30.695Z,4.50
2019-06-01T11:59:30.688Z,4.40
2019-06-01T12:00:30.676Z,4.80
2019-06-01T12:01:30.669Z,4.20
2019-06-01T12:02:30.655Z,4.40
2019-06-01T12:03:30.646Z,4.90
2019-06-01T12:04:30.636Z,3.80
2019-06-01T12:05:30.625Z,4.60
2019-06-01T12:06:30.617Z,4.10
2019-06-01T12:07:30.607Z,4.40
2019-06-01T12:08:33.953Z,4.30
2019-06-01T12:09:30.587Z,4.90
2019-06-01T12:10:30.578Z,3.50
2019-06-01T12:11:30.569Z,4.10
2019-06-01T12:12:30.560Z,3.80
2019-06-01T12:13:30.552Z,4.70
2019-06-01T12:14:30.545Z,4.20
2019-06-01T12:15:30.529Z,4.00
2019-06-01T12:16:30.534Z,3.60
2019-06-01T12:17:30.525Z,4.00
2019-06-01T12:18:30.505Z,3.60
2019-06-01T12:19:30.496Z,4.00
2019-06-01T12:20:30.481Z,4.70
2019-06-01T12:21:30.473Z,3.60
2019-06-01T12:22:30.463Z,4.50
2019-06-01T12:23:30.453Z,4.00
2019-06-01T12:24:30.443Z,4.00
2019-06-01T12:25:30.435Z,3.80
2019-06-01T12:26:30.424Z,3.80
2019-06-01T12:27:30.416Z,4.70
2019-06-01T12:28:30.409Z,5.20
2019-06-01T12:29:30.475Z,3.90
2019-06-01T12:30:30.385Z,4.00
2019-06-01T12:31:30.374Z,3.80
2019-06-01T12:32:30.366Z,5.80
2019-06-01T12:33:30.401Z,5.40
2019-06-01T12:34:30.347Z,4.40
2019-06-01T12:35:30.334Z,3.70
2019-06-01T12:36:30.324Z,5.60
2019-06-01T12:37:45.421Z,3.90
2019-06-01T12:38:31.305Z,3.40
2019-06-01T12:39:30.325Z,4.00
2019-06-01T12:40:30.285Z,3.50
2019-06-01T12:41:30.277Z,3.30
2019-06-01T12:42:30.265Z,4.50
2019-06-01T12:43:30.263Z,3.30
2019-06-01T12:44:30.253Z,3.60
2019-06-01T12:45:30.236Z,3.60
2019-06-01T12:46:30.226Z,3.70
2019-06-01T12:47:30.217Z,4.40
2019-06-01T12:48:30.205Z,4.70
2019-06-01T12:49:30.197Z,4.40
2019-06-01T12:50:30.191Z,4.50
2019-06-01T12:51:30.175Z,4.20
2019-06-01T12:52:30.166Z,3.40
2019-06-01T12:53:30.157Z,3.20
2019-06-01T12:54:30.147Z,3.50
2019-06-01T12:55:30.136Z,3.00
2019-06-01T12:56:30.128Z,6.40
2019-06-01T12:57:30.114Z,3.40
2019-06-01T12:58:30.104Z,3.30
2019-06-01T12:59:30.096Z,3.40
2019-06-01T13:00:30.088Z,3.70
2019-06-01T13:01:30.075Z,3.10
2019-06-01T13:02:30.068Z,3.40